createdAt,value
2019-02-21T00:00:37.087Z,74.80
2019-02-21T00:01:15.891Z,74.60
2019-02-21T00:01:50.542Z,74.60
2019-02-21T00:02:25.185Z,75.10
2019-02-21T00:02:57.787Z,74.70
2019-02-21T00:03:30.421Z,74.60
2019-02-21T00:04:03.862Z,74.70
2019-02-21T00:04:36.416Z,74.60
2019-02-21T00:05:09.342Z,74.80
2019-02-21T00:05:42.206Z,74.90
2019-02-21T00:06:14.678Z,74.90
2019-02-21T00:06:47.523Z,75.10
2019-02-21T00:07:20.059Z,74.90
2019-02-21T00:07:52.548Z,74.80
2019-02-21T00:08:25.435Z,74.70
2019-02-21T00:08:58.258Z,74.80
2019-02-21T00:09:30.866Z,74.60
2019-02-21T00:10:04.220Z,74.70
2019-02-21T00:10:36.690Z,74.80
2019-02-21T00:11:09.488Z,74.80
2019-02-21T00:11:41.938Z,75.00
2019-02-21T00:12:14.448Z,74.90
2019-02-21T00:12:46.984Z,75.00
2019-02-21T00:13:19.458Z,75.00
2019-02-21T00:13:52.747Z,75.00
2019-02-21T00:14:25.607Z,75.10
2019-02-21T00:14:58.087Z,75.10
2019-02-21T00:15:31.419Z,75.00
2019-02-21T00:16:03.911Z,75.00
2019-02-21T00:16:36.776Z,75.00
2019-02-21T00:17:09.263Z,75.70
2019-02-21T00:17:42.171Z,75.00
2019-02-21T00:18:14.670Z,74.90
2019-02-21T00:18:47.472Z,75.00
2019-02-21T00:19:20.665Z,75.00
2019-02-21T00:19:53.123Z,75.00
2019-02-21T00:20:25.982Z,74.90
2019-02-21T00:20:58.446Z,74.90
2019-02-21T00:21:30.919Z,75.00
2019-02-21T00:22:03.394Z,74.80
2019-02-21T00:22:35.972Z,74.80
2019-02-21T00:23:09.416Z,74.80
2019-02-21T00:23:42.248Z,74.80
2019-02-21T00:24:14.702Z,74.70
2019-02-21T00:24:47.538Z,74.80
2019-02-21T00:25:20.619Z,74.90
2019-02-21T00:25:55.682Z,74.70
2019-02-21T00:26:27.516Z,74.80
2019-02-21T00:27:00.331Z,74.80
2019-02-21T00:27:32.796Z,74.80
2019-02-21T00:28:05.660Z,74.70
2019-02-21T00:28:38.148Z,74.80
2019-02-21T00:29:10.652Z,74.80
2019-02-21T00:29:43.114Z,74.70
2019-02-21T00:30:15.582Z,74.70
2019-02-21T00:30:48.063Z,74.80
2019-02-21T00:31:20.856Z,74.80
2019-02-21T00:31:53.334Z,74.80
2019-02-21T00:32:25.813Z,74.80
2019-02-21T00:32:58.582Z,74.80
2019-02-21T00:33:31.055Z,74.80
2019-02-21T00:34:03.848Z,74.90
2019-02-21T00:34:36.933Z,75.00
2019-02-21T00:35:09.382Z,75.50
2019-02-21T00:35:42.146Z,74.90
2019-02-21T00:36:15.001Z,75.10
2019-02-21T00:36:47.476Z,75.20
2019-02-21T00:37:20.683Z,75.00
2019-02-21T00:37:53.815Z,75.00
2019-02-21T00:38:26.606Z,75.10
2019-02-21T00:38:59.084Z,75.30
2019-02-21T00:39:32.262Z,75.10
2019-02-21T00:40:05.053Z,75.10
2019-02-21T00:40:37.796Z,75.10
2019-02-21T00:41:10.959Z,74.90
2019-02-21T00:41:43.428Z,74.80
2019-02-21T00:42:15.903Z,74.90
2019-02-21T00:42:49.052Z,74.90
2019-02-21T00:43:21.523Z,74.90
2019-02-21T00:43:54.624Z,75.00
2019-02-21T00:44:27.396Z,74.90
2019-02-21T00:44:59.867Z,74.90
2019-02-21T00:45:32.785Z,74.80
2019-02-21T00:46:05.990Z,74.80
2019-02-21T00:46:38.837Z,75.00
2019-02-21T00:47:11.320Z,75.00
2019-02-21T00:47:44.075Z,75.00
2019-02-21T00:48:17.256Z,74.90
2019-02-21T00:48:50.006Z,74.90
2019-02-21T00:49:22.484Z,75.00
2019-02-21T00:49:55.339Z,75.10
2019-02-21T00:50:28.221Z,75.10
2019-02-21T00:51:01.089Z,75.00
2019-02-21T00:51:33.842Z,75.00
2019-02-21T00:52:06.697Z,75.20
2019-02-21T00:52:39.226Z,75.30
2019-02-21T00:53:11.730Z,75.80
2019-02-21T00:53:44.525Z,75.20
2019-02-21T00:54:16.996Z,75.10
2019-02-21T00:54:49.482Z,75.10
2019-02-21T00:55:21.930Z,75.00
2019-02-21T00:55:54.397Z,75.20
2019-02-21T00:56:27.231Z,75.20
2019-02-21T00:56:59.996Z,75.20
2019-02-21T00:57:33.176Z,75.00
2019-02-21T00:58:05.771Z,75.00
2019-02-21T00:58:38.245Z,75.10
2019-02-21T00:59:11.384Z,75.30
2019-02-21T00:59:43.839Z,75.20
2019-02-21T01:00:16.405Z,75.20
2019-02-21T01:00:49.614Z,75.20
2019-02-21T01:01:22.101Z,75.30
2019-02-21T01:01:54.592Z,75.30
2019-02-21T01:02:27.043Z,75.40
2019-02-21T01:02:59.921Z,75.40
2019-02-21T01:03:32.400Z,75.50
2019-02-21T01:04:04.875Z,75.70
2019-02-21T01:04:37.335Z,75.60
2019-02-21T01:05:09.819Z,75.50
2019-02-21T01:05:42.279Z,75.30
2019-02-21T01:06:14.749Z,75.40
2019-02-21T01:06:47.524Z,75.40
2019-02-21T01:07:20.344Z,75.40
2019-02-21T01:07:52.810Z,75.50
2019-02-21T01:08:25.658Z,75.50
2019-02-21T01:08:58.146Z,75.60
2019-02-21T01:09:30.724Z,75.70
2019-02-21T01:10:03.357Z,75.80
2019-02-21T01:10:36.134Z,75.90
2019-02-21T01:11:09.006Z,76.00
2019-02-21T01:11:41.477Z,76.00
2019-02-21T01:12:14.287Z,76.00
2019-02-21T01:12:47.402Z,75.90
2019-02-21T01:13:19.862Z,75.80
2019-02-21T01:13:52.319Z,75.80
2019-02-21T01:14:24.791Z,75.90
2019-02-21T01:14:57.871Z,75.90
2019-02-21T01:15:30.359Z,75.90
2019-02-21T01:16:03.195Z,76.00
2019-02-21T01:16:36.082Z,76.00
2019-02-21T01:17:08.564Z,76.10
2019-02-21T01:17:41.702Z,76.10
2019-02-21T01:18:14.519Z,76.20
2019-02-21T01:18:46.991Z,76.10
2019-02-21T01:19:19.457Z,76.10
2019-02-21T01:19:52.255Z,76.30
2019-02-21T01:20:25.060Z,76.30
2019-02-21T01:20:57.526Z,76.00
2019-02-21T01:21:30.012Z,75.90
2019-02-21T01:22:03.560Z,76.00
2019-02-21T01:22:36.027Z,76.10
2019-02-21T01:23:08.898Z,75.80
2019-02-21T01:23:41.719Z,75.80
2019-02-21T01:24:14.210Z,75.70
2019-02-21T01:24:46.677Z,75.80
2019-02-21T01:25:19.135Z,75.90
2019-02-21T01:25:51.877Z,75.70
2019-02-21T01:26:25.100Z,75.60
2019-02-21T01:26:57.830Z,75.60
2019-02-21T01:27:30.916Z,75.70
2019-02-21T01:28:03.793Z,75.80
2019-02-21T01:28:36.270Z,75.70
2019-02-21T01:29:09.134Z,75.70
2019-02-21T01:29:41.612Z,75.90
2019-02-21T01:30:14.074Z,75.90
2019-02-21T01:30:56.426Z,75.60
2019-02-21T01:31:20.831Z,75.60
2019-02-21T01:31:53.849Z,75.60
2019-02-21T01:32:26.302Z,75.70
2019-02-21T01:32:58.763Z,75.90
2019-02-21T01:33:31.508Z,75.80
2019-02-21T01:34:04.364Z,75.80
2019-02-21T01:34:36.862Z,75.60
2019-02-21T01:35:09.661Z,75.70
2019-02-21T01:35:42.430Z,75.60
2019-02-21T01:36:15.180Z,75.50
2019-02-21T01:36:48.273Z,75.60
2019-02-21T01:37:21.060Z,75.40
2019-02-21T01:37:54.230Z,75.50
2019-02-21T01:38:26.682Z,75.50
2019-02-21T01:38:59.447Z,75.60
2019-02-21T01:39:31.907Z,75.60
2019-02-21T01:40:05.261Z,75.60
2019-02-21T01:40:38.171Z,75.40
2019-02-21T01:41:10.643Z,75.50
2019-02-21T01:41:43.094Z,75.40
2019-02-21T01:42:15.576Z,75.30
2019-02-21T01:42:48.039Z,75.40
2019-02-21T01:43:20.894Z,75.50
2019-02-21T01:43:53.648Z,75.50
2019-02-21T01:44:26.485Z,76.20
2019-02-21T01:44:58.951Z,75.60
2019-02-21T01:45:31.464Z,75.50
2019-02-21T01:46:03.912Z,75.50
2019-02-21T01:46:36.363Z,75.50
2019-02-21T01:47:08.971Z,75.60
2019-02-21T01:47:42.402Z,75.70
2019-02-21T01:48:14.870Z,75.90
2019-02-21T01:48:47.325Z,76.00
2019-02-21T01:49:19.788Z,75.70
2019-02-21T01:49:52.254Z,75.80
2019-02-21T01:50:25.431Z,75.80
2019-02-21T01:50:57.941Z,75.70
2019-02-21T01:51:30.410Z,75.90
2019-02-21T01:52:02.879Z,75.90
2019-02-21T01:52:35.740Z,76.00
2019-02-21T01:53:08.550Z,76.20
2019-02-21T01:53:41.012Z,76.10
2019-02-21T01:54:13.473Z,76.10
2019-02-21T01:54:45.967Z,76.00
2019-02-21T01:55:18.435Z,75.70
2019-02-21T01:55:50.948Z,75.70
2019-02-21T01:56:23.394Z,75.70
2019-02-21T01:56:56.132Z,75.50
2019-02-21T01:57:29.059Z,75.70
2019-02-21T01:58:01.506Z,75.60
2019-02-21T01:58:33.988Z,75.70
2019-02-21T01:59:06.944Z,75.70
2019-02-21T01:59:39.806Z,75.90
2019-02-21T02:00:12.418Z,75.80
2019-02-21T02:00:45.155Z,75.90
2019-02-21T02:01:18.020Z,75.80
2019-02-21T02:01:50.523Z,75.70
2019-02-21T02:02:22.995Z,75.50
2019-02-21T02:02:55.475Z,75.30
2019-02-21T02:03:28.472Z,75.30
2019-02-21T02:04:01.307Z,75.50
2019-02-21T02:04:33.784Z,75.60
2019-02-21T02:05:07.200Z,75.60
2019-02-21T02:05:39.672Z,75.80
2019-02-21T02:06:12.142Z,75.70
2019-02-21T02:06:44.609Z,75.70
2019-02-21T02:07:17.403Z,75.80
2019-02-21T02:07:50.178Z,75.60
2019-02-21T02:08:23.290Z,75.10
2019-02-21T02:08:56.059Z,75.20
2019-02-21T02:09:28.859Z,75.50
2019-02-21T02:10:01.690Z,75.60
2019-02-21T02:10:34.767Z,75.80
2019-02-21T02:11:07.233Z,75.60
2019-02-21T02:11:39.771Z,75.60
2019-02-21T02:12:12.227Z,75.60
2019-02-21T02:12:44.727Z,75.70
2019-02-21T02:13:24.508Z,75.70
2019-02-21T02:13:51.466Z,75.50
2019-02-21T02:14:24.247Z,75.60
2019-02-21T02:14:56.724Z,75.70
2019-02-21T02:15:29.516Z,75.70
2019-02-21T02:16:02.013Z,75.70
2019-02-21T02:16:34.473Z,75.70
2019-02-21T02:17:07.271Z,75.80
2019-02-21T02:17:39.727Z,75.80
2019-02-21T02:18:12.232Z,75.60
2019-02-21T02:18:44.711Z,75.70
2019-02-21T02:19:17.479Z,75.60
2019-02-21T02:19:49.946Z,75.70
2019-02-21T02:20:22.409Z,75.30
2019-02-21T02:20:54.874Z,76.00
2019-02-21T02:21:27.344Z,75.80
2019-02-21T02:22:00.146Z,75.70
2019-02-21T02:22:33.340Z,75.60
2019-02-21T02:23:06.185Z,75.50
2019-02-21T02:23:38.706Z,75.50
2019-02-21T02:24:11.163Z,75.50
2019-02-21T02:24:43.630Z,75.60
2019-02-21T02:25:16.102Z,75.60
2019-02-21T02:25:48.572Z,75.60
2019-02-21T02:26:21.153Z,75.60
2019-02-21T02:26:53.919Z,75.60
2019-02-21T02:27:26.380Z,75.50
2019-02-21T02:27:58.842Z,75.50
2019-02-21T02:28:31.323Z,75.50
2019-02-21T02:29:04.179Z,75.60
2019-02-21T02:29:36.935Z,75.60
2019-02-21T02:30:09.757Z,75.40
2019-02-21T02:30:42.587Z,75.60
2019-02-21T02:31:22.821Z,75.60
2019-02-21T02:31:49.952Z,75.60
2019-02-21T02:32:22.440Z,75.70
2019-02-21T02:32:55.189Z,75.60
2019-02-21T02:33:27.656Z,75.60
2019-02-21T02:34:00.494Z,75.50
2019-02-21T02:34:33.005Z,75.60
2019-02-21T02:35:05.487Z,75.50
2019-02-21T02:35:38.265Z,75.40
2019-02-21T02:36:10.730Z,75.60
2019-02-21T02:36:43.199Z,75.60
2019-02-21T02:37:16.313Z,75.30
2019-02-21T02:37:48.775Z,75.60
2019-02-21T02:38:21.225Z,75.60
2019-02-21T02:38:54.403Z,75.80
2019-02-21T02:39:27.590Z,75.70
2019-02-21T02:40:00.508Z,75.70
2019-02-21T02:40:32.971Z,75.60
2019-02-21T02:41:05.789Z,75.60
2019-02-21T02:41:38.275Z,75.50
2019-02-21T02:42:11.010Z,75.60
2019-02-21T02:42:43.783Z,76.30
2019-02-21T02:43:16.613Z,75.80
2019-02-21T02:43:49.082Z,75.80
2019-02-21T02:44:21.560Z,75.30
2019-02-21T02:44:54.117Z,75.80
2019-02-21T02:45:26.623Z,75.50
2019-02-21T02:45:59.107Z,75.40
2019-02-21T02:46:31.661Z,75.30
2019-02-21T02:47:04.132Z,75.30
2019-02-21T02:47:36.601Z,75.30
2019-02-21T02:48:09.072Z,75.30
2019-02-21T02:48:41.884Z,75.40
2019-02-21T02:49:14.360Z,75.50
2019-02-21T02:49:46.843Z,75.50
2019-02-21T02:50:19.690Z,75.40
2019-02-21T02:50:52.165Z,75.30
2019-02-21T02:51:24.945Z,75.30
2019-02-21T02:51:57.402Z,75.20
2019-02-21T02:52:29.884Z,75.40
2019-02-21T02:53:02.699Z,75.50
2019-02-21T02:53:35.162Z,75.40
2019-02-21T02:54:07.635Z,75.40
2019-02-21T02:54:40.494Z,75.50
2019-02-21T02:55:12.952Z,75.70
2019-02-21T02:55:45.421Z,75.60
2019-02-21T02:56:17.924Z,75.50
2019-02-21T02:56:50.395Z,75.50
2019-02-21T02:57:22.881Z,75.70
2019-02-21T02:57:55.364Z,75.60
2019-02-21T02:58:27.829Z,75.50
2019-02-21T02:59:00.602Z,75.60
2019-02-21T02:59:40.900Z,75.60
2019-02-21T03:00:09.567Z,75.50
2019-02-21T03:00:42.040Z,75.60
2019-02-21T03:01:14.834Z,75.70
2019-02-21T03:01:47.298Z,76.10
2019-02-21T03:02:19.766Z,75.60
2019-02-21T03:02:52.312Z,75.60
2019-02-21T03:03:25.402Z,75.70
2019-02-21T03:03:58.160Z,75.50
2019-02-21T03:04:31.022Z,75.60
2019-02-21T03:05:03.498Z,75.60
2019-02-21T03:05:36.363Z,75.70
2019-02-21T03:06:08.939Z,75.60
2019-02-21T03:06:41.687Z,75.40
2019-02-21T03:07:14.546Z,75.50
2019-02-21T03:07:47.314Z,75.20
2019-02-21T03:08:20.119Z,75.20
2019-02-21T03:08:53.275Z,75.10
2019-02-21T03:09:25.736Z,75.20
2019-02-21T03:09:58.206Z,75.00
2019-02-21T03:10:31.048Z,75.20
2019-02-21T03:11:03.521Z,75.20
2019-02-21T03:11:35.982Z,74.80
2019-02-21T03:12:08.456Z,74.80
2019-02-21T03:12:40.956Z,75.00
2019-02-21T03:13:13.417Z,75.00
2019-02-21T03:13:46.296Z,75.00
2019-02-21T03:14:18.771Z,74.60
2019-02-21T03:14:51.239Z,75.00
2019-02-21T03:15:23.704Z,75.00
2019-02-21T03:15:56.179Z,74.90
2019-02-21T03:16:29.231Z,74.90
2019-02-21T03:17:01.688Z,74.90
2019-02-21T03:17:34.154Z,74.90
2019-02-21T03:18:06.652Z,74.80
2019-02-21T03:18:39.128Z,75.00
2019-02-21T03:19:11.608Z,74.90
2019-02-21T03:19:44.061Z,74.80
2019-02-21T03:20:16.535Z,75.00
2019-02-21T03:20:49.007Z,75.20
2019-02-21T03:21:21.480Z,75.20
2019-02-21T03:21:53.955Z,75.20
2019-02-21T03:22:26.743Z,75.10
2019-02-21T03:22:59.201Z,75.00
2019-02-21T03:23:31.716Z,75.00
2019-02-21T03:24:04.197Z,74.90
2019-02-21T03:24:36.667Z,74.80
2019-02-21T03:25:09.260Z,74.90
2019-02-21T03:25:41.711Z,74.90
2019-02-21T03:26:14.190Z,75.00
2019-02-21T03:26:47.046Z,75.00
2019-02-21T03:27:19.912Z,74.90
2019-02-21T03:27:52.377Z,75.00
2019-02-21T03:28:25.544Z,75.00
2019-02-21T03:28:58.334Z,74.90
2019-02-21T03:29:30.798Z,74.80
2019-02-21T03:30:03.840Z,74.90
2019-02-21T03:30:36.667Z,75.00
2019-02-21T03:31:09.137Z,75.00
2019-02-21T03:31:53.423Z,74.90
2019-02-21T03:32:15.885Z,74.90
2019-02-21T03:32:48.372Z,74.60
2019-02-21T03:33:20.951Z,74.70
2019-02-21T03:33:53.417Z,74.80
2019-02-21T03:34:26.288Z,74.80
2019-02-21T03:34:59.792Z,74.70
2019-02-21T03:35:32.281Z,74.60
2019-02-21T03:36:04.768Z,74.50
2019-02-21T03:36:37.235Z,74.50
2019-02-21T03:37:09.693Z,74.50
2019-02-21T03:37:42.181Z,74.70
2019-02-21T03:38:14.630Z,74.70
2019-02-21T03:38:47.098Z,74.70
2019-02-21T03:39:19.874Z,74.60
2019-02-21T03:39:52.381Z,74.60
2019-02-21T03:40:24.844Z,74.60
2019-02-21T03:40:57.307Z,74.60
2019-02-21T03:41:29.799Z,74.50
2019-02-21T03:42:02.278Z,74.50
2019-02-21T03:42:34.747Z,74.50
2019-02-21T03:43:07.220Z,74.30
2019-02-21T03:43:40.079Z,74.40
2019-02-21T03:44:19.803Z,74.30
2019-02-21T03:45:01.853Z,74.30
2019-02-21T03:45:34.529Z,74.30
2019-02-21T03:46:07.004Z,74.30
2019-02-21T03:46:39.454Z,74.40
2019-02-21T03:47:12.308Z,74.40
2019-02-21T03:47:44.785Z,74.40
2019-02-21T03:48:17.578Z,74.30
2019-02-21T03:48:50.055Z,74.20
2019-02-21T03:49:22.551Z,74.20
2019-02-21T03:49:55.001Z,74.30
2019-02-21T03:50:27.628Z,74.40
2019-02-21T03:51:00.099Z,74.40
2019-02-21T03:51:32.559Z,74.30
2019-02-21T03:52:05.419Z,74.40
2019-02-21T03:52:38.007Z,74.50
2019-02-21T03:53:10.849Z,74.50
2019-02-21T03:53:43.692Z,74.60
2019-02-21T03:54:16.155Z,74.60
2019-02-21T03:54:49.263Z,74.70
2019-02-21T03:55:22.029Z,74.50
2019-02-21T03:55:54.902Z,74.40
2019-02-21T03:56:27.921Z,74.50
2019-02-21T03:57:00.396Z,74.50
2019-02-21T03:57:33.195Z,74.50
2019-02-21T03:58:06.290Z,74.50
2019-02-21T03:58:38.779Z,74.60
2019-02-21T03:59:11.602Z,74.60
2019-02-21T03:59:44.083Z,74.50
2019-02-21T04:00:16.959Z,74.50
2019-02-21T04:00:49.542Z,74.50
2019-02-21T04:01:22.301Z,74.50
2019-02-21T04:02:04.869Z,74.60
2019-02-21T04:02:29.343Z,74.70
2019-02-21T04:03:01.810Z,74.70
2019-02-21T04:03:34.275Z,74.70
2019-02-21T04:04:06.746Z,74.60
2019-02-21T04:04:39.621Z,74.60
2019-02-21T04:05:12.381Z,74.60
2019-02-21T04:05:45.138Z,74.60
2019-02-21T04:06:18.069Z,74.60
2019-02-21T04:06:50.572Z,74.60
2019-02-21T04:07:23.342Z,74.60
2019-02-21T04:07:56.112Z,74.70
2019-02-21T04:08:28.604Z,74.80
2019-02-21T04:09:01.123Z,74.80
2019-02-21T04:09:33.595Z,74.90
2019-02-21T04:10:06.599Z,74.70
2019-02-21T04:10:39.084Z,74.70
2019-02-21T04:11:11.567Z,74.60
2019-02-21T04:11:44.047Z,74.50
2019-02-21T04:12:16.572Z,74.50
2019-02-21T04:12:49.624Z,74.60
2019-02-21T04:13:22.478Z,74.60
2019-02-21T04:13:54.955Z,74.60
2019-02-21T04:14:27.814Z,74.60
2019-02-21T04:15:00.367Z,74.70
2019-02-21T04:15:32.804Z,74.70
2019-02-21T04:16:05.905Z,74.90
2019-02-21T04:16:39.061Z,74.80
2019-02-21T04:17:11.533Z,74.90
2019-02-21T04:17:44.135Z,75.00
2019-02-21T04:18:16.610Z,75.00
2019-02-21T04:18:49.091Z,75.10
2019-02-21T04:19:21.572Z,75.10
2019-02-21T04:19:54.068Z,75.20
2019-02-21T04:20:26.845Z,75.30
2019-02-21T04:20:59.329Z,75.30
2019-02-21T04:21:31.808Z,75.60
2019-02-21T04:22:04.285Z,76.10
2019-02-21T04:22:37.110Z,75.60
2019-02-21T04:23:10.131Z,75.80
2019-02-21T04:23:42.631Z,75.90
2019-02-21T04:24:15.498Z,76.10
2019-02-21T04:24:47.982Z,76.20
2019-02-21T04:25:20.466Z,76.20
2019-02-21T04:25:53.068Z,76.40
2019-02-21T04:26:26.110Z,76.50
2019-02-21T04:26:58.594Z,76.40
2019-02-21T04:27:31.533Z,76.70
2019-02-21T04:28:04.349Z,76.50
2019-02-21T04:28:37.132Z,76.50
2019-02-21T04:29:09.609Z,76.80
2019-02-21T04:29:42.391Z,76.90
2019-02-21T04:30:14.879Z,77.10
2019-02-21T04:30:47.642Z,77.00
2019-02-21T04:31:20.394Z,76.90
2019-02-21T04:31:52.874Z,76.80
2019-02-21T04:32:25.360Z,77.00
2019-02-21T04:32:57.840Z,76.90
2019-02-21T04:33:30.322Z,77.10
2019-02-21T04:34:03.233Z,77.30
2019-02-21T04:34:35.713Z,77.30
2019-02-21T04:35:08.321Z,77.10
2019-02-21T04:35:40.799Z,77.20
2019-02-21T04:36:13.271Z,77.20
2019-02-21T04:36:45.734Z,77.20
2019-02-21T04:37:18.224Z,77.40
2019-02-21T04:37:51.607Z,78.10
2019-02-21T04:38:24.343Z,77.60
2019-02-21T04:38:56.827Z,77.60
2019-02-21T04:39:29.954Z,77.90
2019-02-21T04:40:02.449Z,77.90
2019-02-21T04:40:34.952Z,77.90
2019-02-21T04:41:07.770Z,78.30
2019-02-21T04:41:40.242Z,78.20
2019-02-21T04:42:13.175Z,78.30
2019-02-21T04:42:46.024Z,78.20
2019-02-21T04:43:18.472Z,78.00
2019-02-21T04:43:51.900Z,78.00
2019-02-21T04:44:24.859Z,78.00
2019-02-21T04:44:57.393Z,78.10
2019-02-21T04:45:29.873Z,78.20
2019-02-21T04:46:02.624Z,78.30
2019-02-21T04:46:35.735Z,78.30
2019-02-21T04:47:08.568Z,78.20
2019-02-21T04:47:41.750Z,78.10
2019-02-21T04:48:14.229Z,78.20
2019-02-21T04:48:46.712Z,78.30
2019-02-21T04:49:19.766Z,78.60
2019-02-21T04:49:52.634Z,78.80
2019-02-21T04:50:25.270Z,78.80
2019-02-21T04:50:58.160Z,79.00
2019-02-21T04:51:30.638Z,79.10
2019-02-21T04:52:03.503Z,79.20
2019-02-21T04:52:36.325Z,79.20
2019-02-21T04:53:09.123Z,79.10
2019-02-21T04:53:41.596Z,79.20
2019-02-21T04:54:15.109Z,79.30
2019-02-21T04:54:47.596Z,79.40
2019-02-21T04:55:20.088Z,79.50
2019-02-21T04:55:52.598Z,79.50
2019-02-21T04:56:25.340Z,79.40
2019-02-21T04:56:57.914Z,79.40
2019-02-21T04:57:30.400Z,79.50
2019-02-21T04:58:03.180Z,79.50
2019-02-21T04:58:35.928Z,79.60
2019-02-21T04:59:08.417Z,79.70
2019-02-21T04:59:40.887Z,79.70
2019-02-21T05:00:13.382Z,79.80
2019-02-21T05:00:45.858Z,79.60
2019-02-21T05:01:18.363Z,79.60
2019-02-21T05:01:50.840Z,79.60
2019-02-21T05:02:29.232Z,79.60
2019-02-21T05:02:57.856Z,79.50
2019-02-21T05:03:30.750Z,79.50
2019-02-21T05:04:04.941Z,79.50
2019-02-21T05:04:37.548Z,79.60
2019-02-21T05:05:11.062Z,79.70
2019-02-21T05:05:43.560Z,79.80
2019-02-21T05:06:16.043Z,79.80
2019-02-21T05:06:48.896Z,79.30
2019-02-21T05:07:21.383Z,79.70
2019-02-21T05:07:54.129Z,79.70
2019-02-21T05:08:26.637Z,79.70
2019-02-21T05:08:59.128Z,80.00
2019-02-21T05:09:31.603Z,79.80
2019-02-21T05:10:04.336Z,79.90
2019-02-21T05:10:37.082Z,80.10
2019-02-21T05:11:09.581Z,80.10
2019-02-21T05:11:42.075Z,80.10
2019-02-21T05:12:14.994Z,80.00
2019-02-21T05:12:47.839Z,79.90
2019-02-21T05:13:20.328Z,79.90
2019-02-21T05:13:55.140Z,79.90
2019-02-21T05:14:27.606Z,80.00
2019-02-21T05:15:00.370Z,80.00
2019-02-21T05:15:33.275Z,80.10
2019-02-21T05:16:05.755Z,80.10
2019-02-21T05:16:38.236Z,80.30
2019-02-21T05:17:11.076Z,80.50
2019-02-21T05:17:43.885Z,80.30
2019-02-21T05:18:16.357Z,80.50
2019-02-21T05:18:48.821Z,80.40
2019-02-21T05:19:21.307Z,80.20
2019-02-21T05:19:54.417Z,80.30
2019-02-21T05:20:27.629Z,80.30
2019-02-21T05:21:00.929Z,80.30
2019-02-21T05:21:33.793Z,80.20
2019-02-21T05:22:06.272Z,80.10
2019-02-21T05:22:39.069Z,80.00
2019-02-21T05:23:11.578Z,80.10
2019-02-21T05:23:44.176Z,80.20
2019-02-21T05:24:16.939Z,80.20
2019-02-21T05:24:49.786Z,80.20
2019-02-21T05:25:22.653Z,80.20
2019-02-21T05:25:55.132Z,80.20
2019-02-21T05:26:32.013Z,80.30
2019-02-21T05:27:08.805Z,79.90
2019-02-21T05:27:55.233Z,79.80
2019-02-21T05:28:32.437Z,79.70
2019-02-21T05:29:07.258Z,79.90
2019-02-21T05:29:40.141Z,79.90
2019-02-21T05:30:16.403Z,80.60
2019-02-21T05:30:50.144Z,80.10
2019-02-21T05:31:31.529Z,80.20
2019-02-21T05:32:23.419Z,80.40
2019-02-21T05:33:27.492Z,80.30
2019-02-21T05:34:04.989Z,80.50
2019-02-21T05:34:56.974Z,80.50
2019-02-21T05:35:48.665Z,80.50
2019-02-21T05:36:49.904Z,80.60
2019-02-21T05:37:57.244Z,81.00
2019-02-21T05:38:44.740Z,81.10
2019-02-21T05:39:30.188Z,81.40
2019-02-21T05:40:28.573Z,81.40
2019-02-21T05:41:21.047Z,81.50
2019-02-21T05:42:11.967Z,81.60
2019-02-21T05:43:01.053Z,81.70
2019-02-21T05:43:55.792Z,81.80
2019-02-21T05:44:46.944Z,82.00
2019-02-21T05:45:46.779Z,82.20
2019-02-21T05:46:41.055Z,82.30
2019-02-21T05:47:33.035Z,82.80
2019-02-21T05:48:17.754Z,83.00
2019-02-21T05:49:12.784Z,83.40
2019-02-21T05:49:53.335Z,83.70
2019-02-21T05:50:31.905Z,84.20
2019-02-21T05:51:23.874Z,84.70
2019-02-21T05:52:10.623Z,84.50
2019-02-21T05:53:02.942Z,84.80
2019-02-21T05:53:44.208Z,85.20
2019-02-21T05:54:36.551Z,85.30
2019-02-21T05:55:17.514Z,85.70
2019-02-21T05:55:58.547Z,86.30
2019-02-21T05:56:51.076Z,86.40
2019-02-21T05:57:43.053Z,87.00
2019-02-21T05:58:24.685Z,87.20
2019-02-21T05:59:15.338Z,87.80
2019-02-21T06:00:10.266Z,88.50
2019-02-21T06:01:14.574Z,89.00
2019-02-21T06:02:00.809Z,89.50
2019-02-21T06:02:54.103Z,90.10
2019-02-21T06:04:01.352Z,90.40
2019-02-21T06:04:59.123Z,90.50
2019-02-21T06:05:53.890Z,91.10
2019-02-21T06:06:49.040Z,91.60
2019-02-21T06:07:46.875Z,92.00
2019-02-21T06:08:44.133Z,92.30
2019-02-21T06:09:24.145Z,92.60
2019-02-21T06:10:11.172Z,92.80
2019-02-21T06:11:02.461Z,92.70
2019-02-21T06:11:57.244Z,92.80
2019-02-21T06:13:04.826Z,93.00
2019-02-21T06:13:59.928Z,93.30
2019-02-21T06:14:50.173Z,93.70
2019-02-21T06:15:42.130Z,93.90
2019-02-21T06:16:22.037Z,94.20
2019-02-21T06:17:20.127Z,94.40
2019-02-21T06:18:07.510Z,94.70
2019-02-21T06:19:15.013Z,95.00
2019-02-21T06:20:05.747Z,95.10
2019-02-21T06:21:04.055Z,95.50
2019-02-21T06:22:09.675Z,95.90
2019-02-21T06:22:50.322Z,95.90
2019-02-21T06:23:31.696Z,95.90
2019-02-21T06:24:21.382Z,96.20
2019-02-21T06:25:10.920Z,96.30
2019-02-21T06:25:58.888Z,96.30
2019-02-21T06:26:47.264Z,96.50
2019-02-21T06:27:23.648Z,96.60
2019-02-21T06:28:09.451Z,96.80
2019-02-21T06:29:04.354Z,96.70
2019-02-21T06:29:49.038Z,96.80
2019-02-21T06:30:26.519Z,96.90
2019-02-21T06:31:05.317Z,97.10
2019-02-21T06:31:37.799Z,97.30
2019-02-21T06:32:14.183Z,97.50
2019-02-21T06:32:44.871Z,97.50
2019-02-21T06:33:17.391Z,97.50
2019-02-21T06:33:50.131Z,97.40
2019-02-21T06:34:22.614Z,97.40
2019-02-21T06:34:55.094Z,97.50
2019-02-21T06:35:27.969Z,97.60
2019-02-21T06:36:00.446Z,97.70
2019-02-21T06:36:32.930Z,97.70
2019-02-21T06:37:05.431Z,97.80
2019-02-21T06:37:38.559Z,97.90
2019-02-21T06:38:11.030Z,98.10
2019-02-21T06:38:43.993Z,98.20
2019-02-21T06:39:16.750Z,98.30
2019-02-21T06:39:49.243Z,98.50
2019-02-21T06:40:21.728Z,98.70
2019-02-21T06:40:54.496Z,98.50
2019-02-21T06:41:27.001Z,98.60
2019-02-21T06:42:00.283Z,98.70
2019-02-21T06:42:33.138Z,98.90
2019-02-21T06:43:06.177Z,98.90
2019-02-21T06:43:38.651Z,99.00
2019-02-21T06:44:11.785Z,99.10
2019-02-21T06:44:44.648Z,99.10
2019-02-21T06:45:18.162Z,99.20
2019-02-21T06:45:51.657Z,99.30
2019-02-21T06:46:24.423Z,99.60
2019-02-21T06:46:57.177Z,99.70
2019-02-21T06:47:29.650Z,99.50
2019-02-21T06:48:02.480Z,99.60
2019-02-21T06:48:35.373Z,99.60
2019-02-21T06:49:07.855Z,99.40
2019-02-21T06:49:40.387Z,99.60
2019-02-21T06:50:14.473Z,99.50
2019-02-21T06:50:47.865Z,99.60
2019-02-21T06:51:20.694Z,99.60
2019-02-21T06:51:53.912Z,99.60
2019-02-21T06:52:26.390Z,99.70
2019-02-21T06:52:59.241Z,99.70
2019-02-21T06:53:32.288Z,99.90
2019-02-21T06:54:05.042Z,99.80
2019-02-21T06:54:37.846Z,99.80
2019-02-21T06:55:10.354Z,99.80
2019-02-21T06:55:43.370Z,99.80
2019-02-21T06:56:15.846Z,99.70
2019-02-21T06:56:48.324Z,99.60
2019-02-21T06:57:21.106Z,99.60
2019-02-21T06:57:53.580Z,99.80
2019-02-21T06:58:26.379Z,99.90
2019-02-21T06:58:59.128Z,99.90
2019-02-21T06:59:41.572Z,99.90
2019-02-21T07:00:05.929Z,99.90
2019-02-21T07:00:38.733Z,99.90
2019-02-21T07:01:11.549Z,99.90
2019-02-21T07:01:44.610Z,99.90
2019-02-21T07:02:17.642Z,99.90
2019-02-21T07:02:50.137Z,99.90
2019-02-21T07:03:23.243Z,99.90
2019-02-21T07:03:55.728Z,99.90
2019-02-21T07:04:28.575Z,99.90
2019-02-21T07:05:01.346Z,99.90
2019-02-21T07:05:34.123Z,99.90
2019-02-21T07:06:06.667Z,99.90
2019-02-21T07:06:39.378Z,99.90
2019-02-21T07:07:11.847Z,99.90
2019-02-21T07:07:44.343Z,99.90
2019-02-21T07:08:16.823Z,99.90
2019-02-21T07:08:49.623Z,99.90
2019-02-21T07:09:22.098Z,99.90
2019-02-21T07:09:54.649Z,99.90
2019-02-21T07:10:27.136Z,99.90
2019-02-21T07:11:06.197Z,99.90
2019-02-21T07:11:34.203Z,99.90
2019-02-21T07:12:06.967Z,99.90
2019-02-21T07:12:39.714Z,99.90
2019-02-21T07:13:12.231Z,99.90
2019-02-21T07:13:44.702Z,99.90
2019-02-21T07:14:17.208Z,99.90
2019-02-21T07:14:49.674Z,99.90
2019-02-21T07:15:22.154Z,99.90
2019-02-21T07:15:55.353Z,99.90
2019-02-21T07:16:28.178Z,99.90
2019-02-21T07:17:00.980Z,99.90
2019-02-21T07:17:33.824Z,99.90
2019-02-21T07:18:06.309Z,99.90
2019-02-21T07:18:40.879Z,99.90
2019-02-21T07:19:13.523Z,99.90
2019-02-21T07:19:45.997Z,99.90
2019-02-21T07:20:18.485Z,99.90
2019-02-21T07:20:51.626Z,99.90
2019-02-21T07:21:24.511Z,99.90
2019-02-21T07:21:57.376Z,99.90
2019-02-21T07:22:29.890Z,99.90
2019-02-21T07:23:02.380Z,99.90
2019-02-21T07:23:43.042Z,99.90
2019-02-21T07:24:09.123Z,99.90